Map

Track Data

SID SEASON NUMBER BASIN SUBBASIN NAME ISO_TIME NATURE LAT LON WMO_WIND WMO_PRES WMO_AGENCY TRACK_TYPE DIST2LAND LANDFALL IFLAG USA_AGENCY USA_ATCF_ID USA_LAT USA_LON USA_RECORD USA_STATUS USA_WIND USA_PRES USA_SSHS USA_R34_NE USA_R34_SE USA_R34_SW USA_R34_NW USA_R50_NE USA_R50_SE USA_R50_SW USA_R50_NW USA_R64_NE USA_R64_SE USA_R64_SW USA_R64_NW USA_POCI USA_ROCI USA_RMW USA_EYE TOKYO_LAT TOKYO_LON TOKYO_GRADE TOKYO_WIND TOKYO_PRES TOKYO_R50_DIR TOKYO_R50_LONG TOKYO_R50_SHORT TOKYO_R30_DIR TOKYO_R30_LONG TOKYO_R30_SHORT TOKYO_LAND CMA_LAT CMA_LON CMA_CAT CMA_WIND CMA_PRES HKO_LAT HKO_LON HKO_CAT HKO_WIND HKO_PRES NEWDELHI_LAT NEWDELHI_LON NEWDELHI_GRADE NEWDELHI_WIND NEWDELHI_PRES NEWDELHI_CI NEWDELHI_DP NEWDELHI_POCI REUNION_LAT REUNION_LON REUNION_TYPE REUNION_WIND REUNION_PRES REUNION_TNUM REUNION_CI REUNION_RMW REUNION_R34_NE REUNION_R34_SE REUNION_R34_SW REUNION_R34_NW REUNION_R50_NE REUNION_R50_SE REUNION_R50_SW REUNION_R50_NW REUNION_R64_NE REUNION_R64_SE REUNION_R64_SW REUNION_R64_NW BOM_LAT BOM_LON BOM_TYPE BOM_WIND BOM_PRES BOM_TNUM BOM_CI BOM_RMW BOM_R34_NE BOM_R34_SE BOM_R34_SW BOM_R34_NW BOM_R50_NE BOM_R50_SE BOM_R50_SW BOM_R50_NW BOM_R64_NE BOM_R64_SE BOM_R64_SW BOM_R64_NW BOM_ROCI BOM_POCI BOM_EYE BOM_POS_METHOD BOM_PRES_METHOD NADI_LAT NADI_LON NADI_CAT NADI_WIND NADI_PRES WELLINGTON_LAT WELLINGTON_LON WELLINGTON_WIND WELLINGTON_PRES DS824_LAT DS824_LON DS824_STAGE DS824_WIND DS824_PRES TD9636_LAT TD9636_LON TD9636_STAGE TD9636_WIND TD9636_PRES TD9635_LAT TD9635_LON TD9635_WIND TD9635_PRES TD9635_ROCI NEUMANN_LAT NEUMANN_LON NEUMANN_CLASS NEUMANN_WIND NEUMANN_PRES MLC_LAT MLC_LON MLC_CLASS MLC_WIND MLC_PRES USA_GUST BOM_GUST BOM_GUST_PER REUNION_GUST REUNION_GUST_PER USA_SEAHGT USA_SEARAD_NE USA_SEARAD_SE USA_SEARAD_SW USA_SEARAD_NW STORM_SPEED STORM_DIR
1948306N06111 1948 82 WP MM NOT_NAMED 1948-10-31 12:00:00 NR 6.20000 111.000 main 377 377 __________O___ -1 6.20000 111.000 1 3 334
1948306N06111 1948 82 WP MM NOT_NAMED 1948-10-31 15:00:00 NR 6.32348 110.945 main 378 378 __________P___ -1 6.32348 110.945 1 3 337
1948306N06111 1948 82 WP MM NOT_NAMED 1948-10-31 18:00:00 NR 6.47757 110.882 main 394 393 __________P___ -1 6.47757 110.882 1 4 339
1948306N06111 1948 82 WP MM NOT_NAMED 1948-10-31 21:00:00 NR 6.69286 110.803 main 402 402 __________P___ -1 6.69286 110.803 1 6 341
1948306N06111 1948 82 WP MM NOT_NAMED 1948-11-01 00:00:00 NR 7.00000 110.700 main 419 419 __________O___ -1 7.00000 110.700 1 8 342
1948306N06111 1948 82 WP MM NOT_NAMED 1948-11-01 03:00:00 NR 7.41618 110.564 main 448 407 __________P___ -1 7.41618 110.564 1 10 341
1948306N06111 1948 82 WP MM NOT_NAMED 1948-11-01 06:00:00 NR 7.90488 110.390 main 407 349 __________P___ -1 7.90488 110.390 1 11 339
1948306N06111 1948 82 WP MM NOT_NAMED 1948-11-01 09:00:00 NR 8.41614 110.171 main 349 284 __________P___ -1 8.41614 110.171 1 11 334
1948306N06111 1948 82 WP MM NOT_NAMED 1948-11-01 12:00:00 NR 8.90000 109.900 main 284 228 __________O___ -1 8.90000 109.900 1 11 329
1948306N06111 1948 82 WP MM NOT_NAMED 1948-11-01 15:00:00 NR 9.31812 109.616 main 228 173 __________P___ -1 9.31812 109.616 1 10 322
1948306N06111 1948 82 WP MM NOT_NAMED 1948-11-01 18:00:00 NR 9.69695 109.277 main 173 120 __________P___ -1 9.69695 109.277 1 10 314
1948306N06111 1948 82 WP MM NOT_NAMED 1948-11-01 21:00:00 NR 10.0273 108.875 main 120 62 __________P___ -1 10.0273 108.875 1 11 305
1948306N06111 1948 82 WP MM NOT_NAMED 1948-11-02 00:00:00 NR 10.3000 108.400 main 62 11 __________O___ -1 10.3000 108.400 1 11 299
1948306N06111 1948 82 WP MM NOT_NAMED 1948-11-02 03:00:00 NR 10.5763 107.880 main 11 0 __________P___ -1 10.5763 107.880 1 12 294
1948306N06111 1948 82 WP MM NOT_NAMED 1948-11-02 06:00:00 NR 10.7869 107.286 main 0 0 __________P___ -1 10.7869 107.286 1 13 285
1948306N06111 1948 82 WP MM NOT_NAMED 1948-11-02 09:00:00 NR 10.9041 106.624 main 0 0 __________P___ -1 10.9041 106.624 1 14 275
1948306N06111 1948 82 WP MM NOT_NAMED 1948-11-02 12:00:00 NR 10.9000 105.900 main 0 0 __________O___ -1 10.9000 105.900 1 16 263
1948306N06111 1948 82 WP MM NOT_NAMED 1948-11-02 15:00:00 NR 10.7200 105.049 main 0 0 __________P___ -1 10.7200 105.049 1 18 255
1948306N06111 1948 82 WP MM NOT_NAMED 1948-11-02 18:00:00 NR 10.4268 104.157 main 21 21 __________P___ -1 10.4268 104.157 1 18 250
1948306N06111 1948 82 WP MM NOT_NAMED 1948-11-02 21:00:00 NR 10.0950 103.312 main 55 55 __________P___ -1 10.0950 103.312 1 17 248
1948306N06111 1948 82 WP MM NOT_NAMED 1948-11-03 00:00:00 NR 9.80000 102.600 main 133 133 __________O___ -1 9.80000 102.600 1 13 248
1948306N06111 1948 82 WP MM NOT_NAMED 1948-11-03 03:00:00 NR 9.63224 102.132 main 182 182 __________P___ -1 9.63224 102.132 1 8 250
1948306N06111 1948 82 WP MM NOT_NAMED 1948-11-03 06:00:00 NR 9.51610 101.801 main 211 190 __________P___ -1 9.51610 101.801 1 6 252
1948306N06111 1948 82 WP MM NOT_NAMED 1948-11-03 09:00:00 NR 9.44197 101.544 main 181 163 __________P___ -1 9.44197 101.544 1 5 257
1948306N06111 1948 82 WP MM NOT_NAMED 1948-11-03 12:00:00 NR 9.40000 101.300 main 163 133 __________O___ -1 9.40000 101.300 1 5 263
1948306N06111 1948 82 WP MM NOT_NAMED 1948-11-03 15:00:00 NR 9.38092 101.018 main 133 101 __________P___ -1 9.38092 101.018 1 6 268
1948306N06111 1948 82 WP MM NOT_NAMED 1948-11-03 18:00:00 NR 9.37832 100.700 main 101 69 __________P___ -1 9.37832 100.700 1 7 270
1948306N06111 1948 82 WP MM NOT_NAMED 1948-11-03 21:00:00 NR 9.38655 100.356 main 69 31 __________P___ -1 9.38655 100.356 1 7 272
1948306N06111 1948 82 WP MM NOT_NAMED 1948-11-04 00:00:00 NR 9.40000 100.000 main 31 __________O___ -1 9.40000 100.000 1 7 272

Digital Typhoon Data and Search

About IBTrACS Database

This database is a web-friendly format of International Best Track Archive for Climate Stewardship (IBTrACS), a global best track data archive curated by NOAA dating back to 1842.

Updated: 2021-11-26